Terminal Aerodrome Forecast
Issued by NWS

Home | Current Version | Previous Version | Text Only | Print | Product List | Glossary On
Versions: 1 2 3 4 5 6 7 8 9 10 11 12 13
000
FTUS43 KDTX 260527
TAFDET
TAF
KDET 260527Z 2606/2706 VRB03KT P6SM BKN200
     FM261100 21004KT P6SM VCSH SCT070 BKN200
     FM261500 22008KT P6SM VCTS SCT050CB SCT100 BKN200
     FM262000 18008KT P6SM VCTS BKN050CB BKN100 BKN200
     FM270100 16004KT P6SM SCT150=

USA.gov is the U.S. government's official web portal to all federal, state and local government web resources and services.